sensor_id;sensor_type;location;lat;lon;timestamp;temperature;humidity
4406;DHT22;2216;53.806;11.598;2022-09-09T00:04:09;15.40;62.80
4406;DHT22;2216;53.806;11.598;2022-09-09T00:07:25;15.40;62.80
4406;DHT22;2216;53.806;11.598;2022-09-09T00:10:36;15.40;62.70
4406;DHT22;2216;53.806;11.598;2022-09-09T00:13:25;15.40;62.70
4406;DHT22;2216;53.806;11.598;2022-09-09T00:21:37;15.40;62.70
4406;DHT22;2216;53.806;11.598;2022-09-09T00:24:28;15.40;62.80
4406;DHT22;2216;53.806;11.598;2022-09-09T00:27:09;15.40;62.80
4406;DHT22;2216;53.806;11.598;2022-09-09T00:32:30;15.40;62.80
4406;DHT22;2216;53.806;11.598;2022-09-09T00:37:37;15.40;62.80
4406;DHT22;2216;53.806;11.598;2022-09-09T00:40:16;15.40;62.80
4406;DHT22;2216;53.806;11.598;2022-09-09T00:43:32;15.40;62.90
4406;DHT22;2216;53.806;11.598;2022-09-09T00:51:47;15.40;63.00
4406;DHT22;2216;53.806;11.598;2022-09-09T00:54:57;15.40;62.80
4406;DHT22;2216;53.806;11.598;2022-09-09T00:57:35;15.40;62.90
4406;DHT22;2216;53.806;11.598;2022-09-09T01:00:23;15.40;62.80
4406;DHT22;2216;53.806;11.598;2022-09-09T01:03:02;15.50;62.90
4406;DHT22;2216;53.806;11.598;2022-09-09T01:08:01;15.50;63.20
4406;DHT22;2216;53.806;11.598;2022-09-09T01:13:29;15.50;63.00
4406;DHT22;2216;53.806;11.598;2022-09-09T01:16:03;15.50;63.00
4406;DHT22;2216;53.806;11.598;2022-09-09T01:18:51;15.50;62.90
4406;DHT22;2216;53.806;11.598;2022-09-09T01:21:55;15.50;62.90
4406;DHT22;2216;53.806;11.598;2022-09-09T01:27:35;15.50;62.90
4406;DHT22;2216;53.806;11.598;2022-09-09T01:30:07;15.60;62.90
4406;DHT22;2216;53.806;11.598;2022-09-09T01:32:47;15.50;62.80
4406;DHT22;2216;53.806;11.598;2022-09-09T01:35:35;15.60;62.80
4406;DHT22;2216;53.806;11.598;2022-09-09T01:38:05;15.60;62.80
4406;DHT22;2216;53.806;11.598;2022-09-09T01:40:32;15.60;62.90
4406;DHT22;2216;53.806;11.598;2022-09-09T01:42:57;15.60;62.90
4406;DHT22;2216;53.806;11.598;2022-09-09T01:45:24;15.60;62.80
4406;DHT22;2216;53.806;11.598;2022-09-09T01:47:52;15.70;62.90
4406;DHT22;2216;53.806;11.598;2022-09-09T01:50:18;15.70;62.90
4406;DHT22;2216;53.806;11.598;2022-09-09T01:52:47;15.60;62.70
4406;DHT22;2216;53.806;11.598;2022-09-09T01:55:16;15.70;62.80
4406;DHT22;2216;53.806;11.598;2022-09-09T01:57:55;15.70;62.80
4406;DHT22;2216;53.806;11.598;2022-09-09T02:00:26;15.70;62.80
4406;DHT22;2216;53.806;11.598;2022-09-09T02:03:23;15.70;62.80
4406;DHT22;2216;53.806;11.598;2022-09-09T02:08:50;15.70;62.70
4406;DHT22;2216;53.806;11.598;2022-09-09T02:11:19;15.70;62.70
4406;DHT22;2216;53.806;11.598;2022-09-09T02:13:49;15.70;62.70
4406;DHT22;2216;53.806;11.598;2022-09-09T02:19:19;15.70;62.60
4406;DHT22;2216;53.806;11.598;2022-09-09T02:21:52;15.70;62.60
4406;DHT22;2216;53.806;11.598;2022-09-09T02:24:21;15.70;62.70
4406;DHT22;2216;53.806;11.598;2022-09-09T02:26:49;15.70;62.60
4406;DHT22;2216;53.806;11.598;2022-09-09T02:29:34;15.60;62.50
4406;DHT22;2216;53.806;11.598;2022-09-09T02:32:09;15.70;62.60
4406;DHT22;2216;53.806;11.598;2022-09-09T02:34:43;15.60;62.60
4406;DHT22;2216;53.806;11.598;2022-09-09T02:37:12;15.60;62.60
4406;DHT22;2216;53.806;11.598;2022-09-09T02:39:38;15.70;62.70
4406;DHT22;2216;53.806;11.598;2022-09-09T02:42:04;15.60;62.80
4406;DHT22;2216;53.806;11.598;2022-09-09T02:44:30;15.60;62.70
4406;DHT22;2216;53.806;11.598;2022-09-09T02:47:34;15.60;62.70
4406;DHT22;2216;53.806;11.598;2022-09-09T02:50:25;15.60;62.70
4406;DHT22;2216;53.806;11.598;2022-09-09T02:55:47;15.60;62.70
4406;DHT22;2216;53.806;11.598;2022-09-09T02:58:16;15.70;62.80
4406;DHT22;2216;53.806;11.598;2022-09-09T03:00:45;15.60;62.80
4406;DHT22;2216;53.806;11.598;2022-09-09T03:03:12;15.60;62.90
4406;DHT22;2216;53.806;11.598;2022-09-09T03:05:38;15.60;62.90
4406;DHT22;2216;53.806;11.598;2022-09-09T03:08:05;15.60;62.90
4406;DHT22;2216;53.806;11.598;2022-09-09T03:10:31;15.60;62.80
4406;DHT22;2216;53.806;11.598;2022-09-09T03:12:58;15.60;62.80
4406;DHT22;2216;53.806;11.598;2022-09-09T03:15:23;15.60;62.80
4406;DHT22;2216;53.806;11.598;2022-09-09T03:17:49;15.60;62.80
4406;DHT22;2216;53.806;11.598;2022-09-09T03:20:15;15.60;62.80
4406;DHT22;2216;53.806;11.598;2022-09-09T03:22:41;15.60;62.90
4406;DHT22;2216;53.806;11.598;2022-09-09T03:25:07;15.60;62.80
4406;DHT22;2216;53.806;11.598;2022-09-09T03:27:33;15.50;62.80
4406;DHT22;2216;53.806;11.598;2022-09-09T03:29:58;15.60;62.90
4406;DHT22;2216;53.806;11.598;2022-09-09T03:32:24;15.50;62.90
4406;DHT22;2216;53.806;11.598;2022-09-09T03:34:52;15.60;63.00
4406;DHT22;2216;53.806;11.598;2022-09-09T03:37:18;15.60;63.30
4406;DHT22;2216;53.806;11.598;2022-09-09T03:39:45;15.60;63.40
4406;DHT22;2216;53.806;11.598;2022-09-09T03:42:14;15.50;63.30
4406;DHT22;2216;53.806;11.598;2022-09-09T03:44:43;15.50;63.30
4406;DHT22;2216;53.806;11.598;2022-09-09T03:47:18;15.50;63.60
4406;DHT22;2216;53.806;11.598;2022-09-09T03:49:45;15.50;63.30
4406;DHT22;2216;53.806;11.598;2022-09-09T03:52:11;15.50;63.50
4406;DHT22;2216;53.806;11.598;2022-09-09T03:54:37;15.50;63.30
4406;DHT22;2216;53.806;11.598;2022-09-09T03:57:03;15.50;63.30
4406;DHT22;2216;53.806;11.598;2022-09-09T03:59:29;15.50;63.50
4406;DHT22;2216;53.806;11.598;2022-09-09T04:01:56;15.60;63.80
4406;DHT22;2216;53.806;11.598;2022-09-09T04:04:24;15.50;63.50
4406;DHT22;2216;53.806;11.598;2022-09-09T04:06:51;15.40;63.50
4406;DHT22;2216;53.806;11.598;2022-09-09T04:09:17;15.40;63.60
4406;DHT22;2216;53.806;11.598;2022-09-09T04:11:43;15.40;63.60
4406;DHT22;2216;53.806;11.598;2022-09-09T04:14:08;15.40;63.80
4406;DHT22;2216;53.806;11.598;2022-09-09T04:16:34;15.40;63.60
4406;DHT22;2216;53.806;11.598;2022-09-09T04:19:02;15.40;64.00
4406;DHT22;2216;53.806;11.598;2022-09-09T04:21:30;15.40;63.80
4406;DHT22;2216;53.806;11.598;2022-09-09T04:23:56;15.40;63.70
4406;DHT22;2216;53.806;11.598;2022-09-09T04:26:22;15.30;64.30
4406;DHT22;2216;53.806;11.598;2022-09-09T04:28:48;15.30;63.50
4406;DHT22;2216;53.806;11.598;2022-09-09T04:31:19;15.30;63.50
4406;DHT22;2216;53.806;11.598;2022-09-09T04:33:46;15.30;63.40
4406;DHT22;2216;53.806;11.598;2022-09-09T04:36:13;15.30;63.40
4406;DHT22;2216;53.806;11.598;2022-09-09T04:38:38;15.30;63.50
4406;DHT22;2216;53.806;11.598;2022-09-09T04:41:05;15.30;63.50
4406;DHT22;2216;53.806;11.598;2022-09-09T04:43:31;15.30;63.70
4406;DHT22;2216;53.806;11.598;2022-09-09T04:45:56;15.30;63.50
4406;DHT22;2216;53.806;11.598;2022-09-09T04:48:23;15.30;63.60
4406;DHT22;2216;53.806;11.598;2022-09-09T04:50:57;15.30;63.80
4406;DHT22;2216;53.806;11.598;2022-09-09T04:53:23;15.30;63.60
4406;DHT22;2216;53.806;11.598;2022-09-09T04:55:51;15.30;63.80
4406;DHT22;2216;53.806;11.598;2022-09-09T04:58:32;15.30;63.70
4406;DHT22;2216;53.806;11.598;2022-09-09T05:01:17;15.30;63.80
4406;DHT22;2216;53.806;11.598;2022-09-09T05:03:45;15.20;63.70
4406;DHT22;2216;53.806;11.598;2022-09-09T05:06:19;15.20;63.80
4406;DHT22;2216;53.806;11.598;2022-09-09T05:08:46;15.20;64.20
4406;DHT22;2216;53.806;11.598;2022-09-09T05:11:20;15.20;64.20
4406;DHT22;2216;53.806;11.598;2022-09-09T05:13:53;15.20;64.10
4406;DHT22;2216;53.806;11.598;2022-09-09T05:16:20;15.20;64.10
4406;DHT22;2216;53.806;11.598;2022-09-09T05:18:46;15.20;64.20
4406;DHT22;2216;53.806;11.598;2022-09-09T05:21:12;15.20;64.00
4406;DHT22;2216;53.806;11.598;2022-09-09T05:23:39;14.90;64.00
4406;DHT22;2216;53.806;11.598;2022-09-09T05:26:06;15.20;64.30
4406;DHT22;2216;53.806;11.598;2022-09-09T05:28:34;15.20;64.30
4406;DHT22;2216;53.806;11.598;2022-09-09T05:31:04;15.20;64.20
4406;DHT22;2216;53.806;11.598;2022-09-09T05:33:31;15.20;64.10
4406;DHT22;2216;53.806;11.598;2022-09-09T05:36:02;15.20;64.10
4406;DHT22;2216;53.806;11.598;2022-09-09T05:38:30;15.20;64.00
4406;DHT22;2216;53.806;11.598;2022-09-09T05:40:57;15.40;64.30
4406;DHT22;2216;53.806;11.598;2022-09-09T05:43:23;15.20;64.20
4406;DHT22;2216;53.806;11.598;2022-09-09T05:46:08;15.20;64.00
4406;DHT22;2216;53.806;11.598;2022-09-09T05:48:38;15.30;64.30
4406;DHT22;2216;53.806;11.598;2022-09-09T05:51:08;15.30;64.20
4406;DHT22;2216;53.806;11.598;2022-09-09T05:53:37;15.30;64.20
4406;DHT22;2216;53.806;11.598;2022-09-09T05:56:05;15.30;64.30
4406;DHT22;2216;53.806;11.598;2022-09-09T05:58:32;15.30;64.10
4406;DHT22;2216;53.806;11.598;2022-09-09T06:01:06;15.30;64.10
4406;DHT22;2216;53.806;11.598;2022-09-09T06:03:38;15.30;64.10
4406;DHT22;2216;53.806;11.598;2022-09-09T06:06:07;15.30;64.30
4406;DHT22;2216;53.806;11.598;2022-09-09T06:08:35;15.40;64.40
4406;DHT22;2216;53.806;11.598;2022-09-09T06:11:04;15.40;64.40
4406;DHT22;2216;53.806;11.598;2022-09-09T06:13:38;15.40;64.50
4406;DHT22;2216;53.806;11.598;2022-09-09T06:16:07;15.40;64.40
4406;DHT22;2216;53.806;11.598;2022-09-09T06:18:34;15.50;64.70
4406;DHT22;2216;53.806;11.598;2022-09-09T06:21:02;15.50;64.60
4406;DHT22;2216;53.806;11.598;2022-09-09T06:23:33;15.50;64.40
4406;DHT22;2216;53.806;11.598;2022-09-09T06:28:50;15.60;64.40
4406;DHT22;2216;53.806;11.598;2022-09-09T06:31:22;15.60;64.50
4406;DHT22;2216;53.806;11.598;2022-09-09T06:33:53;15.70;64.60
4406;DHT22;2216;53.806;11.598;2022-09-09T06:36:22;15.70;64.80
4406;DHT22;2216;53.806;11.598;2022-09-09T06:38:52;15.70;64.80
4406;DHT22;2216;53.806;11.598;2022-09-09T06:41:20;15.80;64.90
4406;DHT22;2216;53.806;11.598;2022-09-09T06:43:47;15.90;65.00
4406;DHT22;2216;53.806;11.598;2022-09-09T06:46:18;15.90;65.40
4406;DHT22;2216;53.806;11.598;2022-09-09T06:48:45;16.00;66.00
4406;DHT22;2216;53.806;11.598;2022-09-09T06:51:17;16.00;65.10
4406;DHT22;2216;53.806;11.598;2022-09-09T06:53:45;16.10;65.10
4406;DHT22;2216;53.806;11.598;2022-09-09T06:56:17;16.10;65.10
4406;DHT22;2216;53.806;11.598;2022-09-09T06:58:51;16.10;65.00
4406;DHT22;2216;53.806;11.598;2022-09-09T07:01:20;16.20;65.00
4406;DHT22;2216;53.806;11.598;2022-09-09T07:03:50;16.30;65.00
4406;DHT22;2216;53.806;11.598;2022-09-09T07:06:20;16.30;65.10
4406;DHT22;2216;53.806;11.598;2022-09-09T07:08:50;16.40;65.10
4406;DHT22;2216;53.806;11.598;2022-09-09T07:11:20;16.50;65.30
4406;DHT22;2216;53.806;11.598;2022-09-09T07:13:47;16.50;65.40
4406;DHT22;2216;53.806;11.598;2022-09-09T07:16:16;16.60;65.50
4406;DHT22;2216;53.806;11.598;2022-09-09T07:18:43;16.70;65.40
4406;DHT22;2216;53.806;11.598;2022-09-09T07:21:10;16.80;65.30
4406;DHT22;2216;53.806;11.598;2022-09-09T07:23:37;16.90;65.40
4406;DHT22;2216;53.806;11.598;2022-09-09T07:26:09;16.90;65.10
4406;DHT22;2216;53.806;11.598;2022-09-09T07:28:39;17.00;65.10
4406;DHT22;2216;53.806;11.598;2022-09-09T07:31:07;17.10;65.50
4406;DHT22;2216;53.806;11.598;2022-09-09T07:33:38;17.10;65.30
4406;DHT22;2216;53.806;11.598;2022-09-09T07:36:16;17.20;65.40
4406;DHT22;2216;53.806;11.598;2022-09-09T07:38:48;17.20;65.00
4406;DHT22;2216;53.806;11.598;2022-09-09T07:41:29;17.30;64.90
4406;DHT22;2216;53.806;11.598;2022-09-09T07:43:59;17.30;65.20
4406;DHT22;2216;53.806;11.598;2022-09-09T07:46:26;17.40;65.90
4406;DHT22;2216;53.806;11.598;2022-09-09T07:48:53;17.50;65.70
4406;DHT22;2216;53.806;11.598;2022-09-09T07:51:27;17.60;65.70
4406;DHT22;2216;53.806;11.598;2022-09-09T07:53:56;17.70;65.30
4406;DHT22;2216;53.806;11.598;2022-09-09T07:56:24;17.70;65.70
4406;DHT22;2216;53.806;11.598;2022-09-09T07:58:53;17.80;65.10
4406;DHT22;2216;53.806;11.598;2022-09-09T08:01:25;17.90;65.30
4406;DHT22;2216;53.806;11.598;2022-09-09T08:03:56;18.00;65.30
4406;DHT22;2216;53.806;11.598;2022-09-09T08:06:31;18.10;65.50
4406;DHT22;2216;53.806;11.598;2022-09-09T08:08:58;18.30;65.60
4406;DHT22;2216;53.806;11.598;2022-09-09T08:11:26;18.40;65.50
4406;DHT22;2216;53.806;11.598;2022-09-09T08:13:53;18.50;65.30
4406;DHT22;2216;53.806;11.598;2022-09-09T08:16:24;18.50;65.20
4406;DHT22;2216;53.806;11.598;2022-09-09T08:18:55;18.70;65.30
4406;DHT22;2216;53.806;11.598;2022-09-09T08:21:23;18.80;65.50
4406;DHT22;2216;53.806;11.598;2022-09-09T08:23:52;18.90;65.40
4406;DHT22;2216;53.806;11.598;2022-09-09T08:26:21;19.00;65.10
4406;DHT22;2216;53.806;11.598;2022-09-09T08:28:53;19.10;64.90
4406;DHT22;2216;53.806;11.598;2022-09-09T08:31:30;19.20;64.80
4406;DHT22;2216;53.806;11.598;2022-09-09T08:34:01;19.20;64.40
4406;DHT22;2216;53.806;11.598;2022-09-09T08:36:30;19.30;64.30
4406;DHT22;2216;53.806;11.598;2022-09-09T08:38:58;19.30;64.00
4406;DHT22;2216;53.806;11.598;2022-09-09T08:45:00;19.30;63.80
4406;DHT22;2216;53.806;11.598;2022-09-09T08:47:48;19.30;64.00
4406;DHT22;2216;53.806;11.598;2022-09-09T08:50:34;19.30;63.80
4406;DHT22;2216;53.806;11.598;2022-09-09T08:53:02;19.30;63.80
4406;DHT22;2216;53.806;11.598;2022-09-09T08:55:50;19.30;64.10
4406;DHT22;2216;53.806;11.598;2022-09-09T08:58:19;19.40;64.40
4406;DHT22;2216;53.806;11.598;2022-09-09T09:13:03;19.70;64.10
4406;DHT22;2216;53.806;11.598;2022-09-09T09:15:36;19.80;64.10
4406;DHT22;2216;53.806;11.598;2022-09-09T09:18:04;19.90;64.10
4406;DHT22;2216;53.806;11.598;2022-09-09T09:20:39;19.90;64.20
4406;DHT22;2216;53.806;11.598;2022-09-09T09:23:15;20.10;64.10
4406;DHT22;2216;53.806;11.598;2022-09-09T09:25:48;20.10;64.00
4406;DHT22;2216;53.806;11.598;2022-09-09T09:28:24;20.20;64.00
4406;DHT22;2216;53.806;11.598;2022-09-09T09:31:03;20.20;64.10
4406;DHT22;2216;53.806;11.598;2022-09-09T09:35:59;20.50;64.40
4406;DHT22;2216;53.806;11.598;2022-09-09T09:38:27;20.60;64.20
4406;DHT22;2216;53.806;11.598;2022-09-09T09:40:55;20.70;64.40
4406;DHT22;2216;53.806;11.598;2022-09-09T09:43:33;20.80;64.20
4406;DHT22;2216;53.806;11.598;2022-09-09T09:46:00;21.00;64.40
4406;DHT22;2216;53.806;11.598;2022-09-09T09:48:29;21.10;64.20
4406;DHT22;2216;53.806;11.598;2022-09-09T09:51:10;21.20;63.90
4406;DHT22;2216;53.806;11.598;2022-09-09T09:53:39;21.30;64.10
4406;DHT22;2216;53.806;11.598;2022-09-09T09:56:08;21.40;64.00
4406;DHT22;2216;53.806;11.598;2022-09-09T10:01:25;21.80;64.20
4406;DHT22;2216;53.806;11.598;2022-09-09T10:03:54;21.90;64.10
4406;DHT22;2216;53.806;11.598;2022-09-09T10:06:34;22.00;63.60
4406;DHT22;2216;53.806;11.598;2022-09-09T10:09:04;22.10;63.30
4406;DHT22;2216;53.806;11.598;2022-09-09T10:12:04;22.20;63.30
4406;DHT22;2216;53.806;11.598;2022-09-09T10:21:06;22.50;63.30
4406;DHT22;2216;53.806;11.598;2022-09-09T10:23:55;22.70;63.30
4406;DHT22;2216;53.806;11.598;2022-09-09T10:29:47;22.90;63.10
4406;DHT22;2216;53.806;11.598;2022-09-09T10:33:12;23.10;62.90
4406;DHT22;2216;53.806;11.598;2022-09-09T10:35:51;23.10;62.50
4406;DHT22;2216;53.806;11.598;2022-09-09T10:38:40;23.10;62.20
4406;DHT22;2216;53.806;11.598;2022-09-09T10:41:15;23.10;61.90
4406;DHT22;2216;53.806;11.598;2022-09-09T10:52:29;23.20;61.80
4406;DHT22;2216;53.806;11.598;2022-09-09T10:57:48;23.10;61.60
4406;DHT22;2216;53.806;11.598;2022-09-09T11:00:23;23.10;61.70
4406;DHT22;2216;53.806;11.598;2022-09-09T11:03:02;23.10;61.70
4406;DHT22;2216;53.806;11.598;2022-09-09T11:05:41;23.10;61.70
4406;DHT22;2216;53.806;11.598;2022-09-09T11:08:14;23.10;61.90
4406;DHT22;2216;53.806;11.598;2022-09-09T11:13:55;23.10;61.90
4406;DHT22;2216;53.806;11.598;2022-09-09T11:16:40;23.10;61.70
4406;DHT22;2216;53.806;11.598;2022-09-09T11:21:48;23.10;61.90
4406;DHT22;2216;53.806;11.598;2022-09-09T11:24:35;23.10;62.20
4406;DHT22;2216;53.806;11.598;2022-09-09T11:27:15;23.20;62.10
4406;DHT22;2216;53.806;11.598;2022-09-09T11:39:42;23.20;61.40
4406;DHT22;2216;53.806;11.598;2022-09-09T11:42:18;23.30;61.70
4406;DHT22;2216;53.806;11.598;2022-09-09T11:44:45;23.40;62.20
4406;DHT22;2216;53.806;11.598;2022-09-09T11:47:28;23.50;62.40
4406;DHT22;2216;53.806;11.598;2022-09-09T11:52:42;23.70;61.50
4406;DHT22;2216;53.806;11.598;2022-09-09T11:55:27;23.80;61.40
4406;DHT22;2216;53.806;11.598;2022-09-09T11:57:59;23.80;61.30
4406;DHT22;2216;53.806;11.598;2022-09-09T12:00:39;23.80;61.10
4406;DHT22;2216;53.806;11.598;2022-09-09T12:03:40;23.80;60.50
4406;DHT22;2216;53.806;11.598;2022-09-09T12:06:25;23.80;60.80
4406;DHT22;2216;53.806;11.598;2022-09-09T12:08:57;23.70;60.60
4406;DHT22;2216;53.806;11.598;2022-09-09T12:11:28;23.70;61.00
4406;DHT22;2216;53.806;11.598;2022-09-09T12:13:57;23.90;61.50
4406;DHT22;2216;53.806;11.598;2022-09-09T12:16:35;24.00;61.50
4406;DHT22;2216;53.806;11.598;2022-09-09T12:19:19;24.10;61.20
4406;DHT22;2216;53.806;11.598;2022-09-09T12:24:21;24.20;60.80
4406;DHT22;2216;53.806;11.598;2022-09-09T12:26:58;24.20;60.80
4406;DHT22;2216;53.806;11.598;2022-09-09T12:29:45;24.20;60.80
4406;DHT22;2216;53.806;11.598;2022-09-09T12:32:25;24.30;61.20
4406;DHT22;2216;53.806;11.598;2022-09-09T12:34:58;24.50;61.40
4406;DHT22;2216;53.806;11.598;2022-09-09T12:37:40;24.60;61.20
4406;DHT22;2216;53.806;11.598;2022-09-09T12:40:28;24.80;61.10
4406;DHT22;2216;53.806;11.598;2022-09-09T12:42:56;24.90;60.90
4406;DHT22;2216;53.806;11.598;2022-09-09T12:45:24;24.90;60.40
4406;DHT22;2216;53.806;11.598;2022-09-09T12:47:53;25.00;60.30
4406;DHT22;2216;53.806;11.598;2022-09-09T12:50:32;25.00;59.60
4406;DHT22;2216;53.806;11.598;2022-09-09T12:53:08;24.90;59.60
4406;DHT22;2216;53.806;11.598;2022-09-09T12:55:38;24.90;59.60
4406;DHT22;2216;53.806;11.598;2022-09-09T12:58:05;24.90;59.70
4406;DHT22;2216;53.806;11.598;2022-09-09T13:00:33;24.90;60.00
4406;DHT22;2216;53.806;11.598;2022-09-09T13:03:16;25.00;60.00
4406;DHT22;2216;53.806;11.598;2022-09-09T13:05:42;25.00;59.90
4406;DHT22;2216;53.806;11.598;2022-09-09T13:08:11;25.10;60.00
4406;DHT22;2216;53.806;11.598;2022-09-09T13:13:35;25.10;59.60
4406;DHT22;2216;53.806;11.598;2022-09-09T13:16:04;25.00;59.40
4406;DHT22;2216;53.806;11.598;2022-09-09T13:18:35;24.90;59.30
4406;DHT22;2216;53.806;11.598;2022-09-09T13:21:03;24.90;59.20
4406;DHT22;2216;53.806;11.598;2022-09-09T13:23:36;24.80;59.20
4406;DHT22;2216;53.806;11.598;2022-09-09T13:26:06;24.70;59.00
4406;DHT22;2216;53.806;11.598;2022-09-09T13:28:48;24.60;59.10
4406;DHT22;2216;53.806;11.598;2022-09-09T13:31:28;24.50;59.00
4406;DHT22;2216;53.806;11.598;2022-09-09T13:33:55;24.40;59.10
4406;DHT22;2216;53.806;11.598;2022-09-09T13:36:29;24.30;58.90
4406;DHT22;2216;53.806;11.598;2022-09-09T13:38:58;24.20;59.20
4406;DHT22;2216;53.806;11.598;2022-09-09T13:41:35;24.20;59.30
4406;DHT22;2216;53.806;11.598;2022-09-09T13:44:03;24.10;59.30
4406;DHT22;2216;53.806;11.598;2022-09-09T13:46:40;24.10;59.40
4406;DHT22;2216;53.806;11.598;2022-09-09T13:51:49;24.00;59.40
4406;DHT22;2216;53.806;11.598;2022-09-09T13:54:19;23.90;59.40
4406;DHT22;2216;53.806;11.598;2022-09-09T13:56:46;24.00;59.50
4406;DHT22;2216;53.806;11.598;2022-09-09T13:59:15;24.00;59.70
4406;DHT22;2216;53.806;11.598;2022-09-09T14:01:42;24.00;59.70
4406;DHT22;2216;53.806;11.598;2022-09-09T14:04:09;24.10;59.80
4406;DHT22;2216;53.806;11.598;2022-09-09T14:06:35;24.10;59.60
4406;DHT22;2216;53.806;11.598;2022-09-09T14:09:10;24.10;59.60
4406;DHT22;2216;53.806;11.598;2022-09-09T14:11:37;24.10;59.50
4406;DHT22;2216;53.806;11.598;2022-09-09T14:14:03;24.10;59.50
4406;DHT22;2216;53.806;11.598;2022-09-09T14:16:30;24.10;59.50
4406;DHT22;2216;53.806;11.598;2022-09-09T14:18:55;24.10;59.40
4406;DHT22;2216;53.806;11.598;2022-09-09T14:21:25;24.10;59.50
4406;DHT22;2216;53.806;11.598;2022-09-09T14:23:51;24.20;59.70
4406;DHT22;2216;53.806;11.598;2022-09-09T14:26:18;24.30;60.00
4406;DHT22;2216;53.806;11.598;2022-09-09T14:28:46;24.40;60.70
4406;DHT22;2216;53.806;11.598;2022-09-09T14:31:12;24.50;60.50
4406;DHT22;2216;53.806;11.598;2022-09-09T14:33:39;24.70;60.00
4406;DHT22;2216;53.806;11.598;2022-09-09T14:36:06;24.90;60.00
4406;DHT22;2216;53.806;11.598;2022-09-09T14:38:36;25.00;59.70
4406;DHT22;2216;53.806;11.598;2022-09-09T14:41:07;25.00;59.60
4406;DHT22;2216;53.806;11.598;2022-09-09T14:43:34;25.10;59.50
4406;DHT22;2216;53.806;11.598;2022-09-09T14:46:12;25.10;59.30
4406;DHT22;2216;53.806;11.598;2022-09-09T14:48:39;25.10;59.10
4406;DHT22;2216;53.806;11.598;2022-09-09T14:51:11;25.10;58.90
4406;DHT22;2216;53.806;11.598;2022-09-09T14:53:52;25.00;59.40
4406;DHT22;2216;53.806;11.598;2022-09-09T14:56:21;24.90;58.70
4406;DHT22;2216;53.806;11.598;2022-09-09T14:58:48;24.80;58.70
4406;DHT22;2216;53.806;11.598;2022-09-09T15:01:16;24.60;58.40
4406;DHT22;2216;53.806;11.598;2022-09-09T15:03:52;24.50;58.40
4406;DHT22;2216;53.806;11.598;2022-09-09T15:06:22;24.50;58.40
4406;DHT22;2216;53.806;11.598;2022-09-09T15:08:50;24.20;58.40
4406;DHT22;2216;53.806;11.598;2022-09-09T15:11:17;24.10;58.50
4406;DHT22;2216;53.806;11.598;2022-09-09T15:13:44;24.00;58.50
4406;DHT22;2216;53.806;11.598;2022-09-09T15:16:17;23.80;58.40
4406;DHT22;2216;53.806;11.598;2022-09-09T15:18:45;23.70;58.50
4406;DHT22;2216;53.806;11.598;2022-09-09T15:21:17;23.60;58.60
4406;DHT22;2216;53.806;11.598;2022-09-09T15:23:44;23.40;58.60
4406;DHT22;2216;53.806;11.598;2022-09-09T15:26:10;23.30;58.60
4406;DHT22;2216;53.806;11.598;2022-09-09T15:28:40;23.20;58.60
4406;DHT22;2216;53.806;11.598;2022-09-09T15:31:17;23.10;58.60
4406;DHT22;2216;53.806;11.598;2022-09-09T15:33:58;23.00;58.60
4406;DHT22;2216;53.806;11.598;2022-09-09T15:36:40;22.90;58.60
4406;DHT22;2216;53.806;11.598;2022-09-09T15:39:12;22.70;58.60
4406;DHT22;2216;53.806;11.598;2022-09-09T15:41:41;22.60;58.70
4406;DHT22;2216;53.806;11.598;2022-09-09T15:44:09;22.50;58.80
4406;DHT22;2216;53.806;11.598;2022-09-09T15:46:39;22.40;58.90
4406;DHT22;2216;53.806;11.598;2022-09-09T15:49:08;22.30;59.50
4406;DHT22;2216;53.806;11.598;2022-09-09T15:51:43;22.10;58.90
4406;DHT22;2216;53.806;11.598;2022-09-09T15:54:12;22.10;59.60
4406;DHT22;2216;53.806;11.598;2022-09-09T15:56:40;22.00;59.10
4406;DHT22;2216;53.806;11.598;2022-09-09T15:59:06;21.90;59.10
4406;DHT22;2216;53.806;11.598;2022-09-09T16:01:32;21.80;58.90
4406;DHT22;2216;53.806;11.598;2022-09-09T16:03:59;21.70;58.70
4406;DHT22;2216;53.806;11.598;2022-09-09T16:06:26;21.50;58.50
4406;DHT22;2216;53.806;11.598;2022-09-09T16:08:54;21.30;58.40
4406;DHT22;2216;53.806;11.598;2022-09-09T16:11:31;21.10;58.30
4406;DHT22;2216;53.806;11.598;2022-09-09T16:13:59;20.90;58.20
4406;DHT22;2216;53.806;11.598;2022-09-09T16:16:27;20.60;58.20
4406;DHT22;2216;53.806;11.598;2022-09-09T16:18:59;20.40;58.20
4406;DHT22;2216;53.806;11.598;2022-09-09T16:21:34;20.10;58.30
4406;DHT22;2216;53.806;11.598;2022-09-09T16:24:07;19.90;58.40
4406;DHT22;2216;53.806;11.598;2022-09-09T16:26:35;19.70;58.50
4406;DHT22;2216;53.806;11.598;2022-09-09T16:29:03;19.50;58.70
4406;DHT22;2216;53.806;11.598;2022-09-09T16:31:29;19.30;58.80
4406;DHT22;2216;53.806;11.598;2022-09-09T16:33:57;19.10;58.80
4406;DHT22;2216;53.806;11.598;2022-09-09T16:36:27;19.00;58.90
4406;DHT22;2216;53.806;11.598;2022-09-09T16:39:05;18.90;59.00
4406;DHT22;2216;53.806;11.598;2022-09-09T16:41:32;18.80;59.10
4406;DHT22;2216;53.806;11.598;2022-09-09T16:44:00;18.70;59.10
4406;DHT22;2216;53.806;11.598;2022-09-09T16:46:32;18.50;59.00
4406;DHT22;2216;53.806;11.598;2022-09-09T16:49:01;18.40;58.90
4406;DHT22;2216;53.806;11.598;2022-09-09T16:51:42;18.20;58.80
4406;DHT22;2216;53.806;11.598;2022-09-09T16:54:13;18.00;58.90
4406;DHT22;2216;53.806;11.598;2022-09-09T16:56:41;17.90;59.10
4406;DHT22;2216;53.806;11.598;2022-09-09T16:59:11;17.80;59.20
4406;DHT22;2216;53.806;11.598;2022-09-09T17:01:46;17.80;59.40
4406;DHT22;2216;53.806;11.598;2022-09-09T17:04:16;17.60;59.40
4406;DHT22;2216;53.806;11.598;2022-09-09T17:06:46;17.50;59.40
4406;DHT22;2216;53.806;11.598;2022-09-09T17:09:15;17.40;59.60
4406;DHT22;2216;53.806;11.598;2022-09-09T17:11:41;17.20;59.50
4406;DHT22;2216;53.806;11.598;2022-09-09T17:14:08;17.20;59.70
4406;DHT22;2216;53.806;11.598;2022-09-09T17:16:37;17.20;59.70
4406;DHT22;2216;53.806;11.598;2022-09-09T17:19:04;17.10;59.80
4406;DHT22;2216;53.806;11.598;2022-09-09T17:21:31;17.10;59.90
4406;DHT22;2216;53.806;11.598;2022-09-09T17:23:58;17.00;59.80
4406;DHT22;2216;53.806;11.598;2022-09-09T17:26:26;17.00;59.90
4406;DHT22;2216;53.806;11.598;2022-09-09T17:28:54;17.00;59.90
4406;DHT22;2216;53.806;11.598;2022-09-09T17:31:21;16.90;59.80
4406;DHT22;2216;53.806;11.598;2022-09-09T17:33:50;16.90;59.90
4406;DHT22;2216;53.806;11.598;2022-09-09T17:36:20;16.80;59.90
4406;DHT22;2216;53.806;11.598;2022-09-09T17:38:53;16.80;60.00
4406;DHT22;2216;53.806;11.598;2022-09-09T17:41:21;16.80;60.10
4406;DHT22;2216;53.806;11.598;2022-09-09T17:43:48;16.70;60.10
4406;DHT22;2216;53.806;11.598;2022-09-09T17:46:29;16.50;60.10
4406;DHT22;2216;53.806;11.598;2022-09-09T17:48:58;16.70;60.20
4406;DHT22;2216;53.806;11.598;2022-09-09T17:51:27;16.70;60.30
4406;DHT22;2216;53.806;11.598;2022-09-09T17:53:57;16.70;60.30
4406;DHT22;2216;53.806;11.598;2022-09-09T17:56:27;16.70;60.50
4406;DHT22;2216;53.806;11.598;2022-09-09T17:58:56;16.70;60.30
4406;DHT22;2216;53.806;11.598;2022-09-09T18:01:25;16.70;60.20
4406;DHT22;2216;53.806;11.598;2022-09-09T18:03:53;16.70;60.10